sensor_id;sensor_type;location;lat;lon;timestamp;P1;durP1;ratioP1;P2;durP2;ratioP2
43146;SDS011;28752;48.266;7.402;2023-04-25T00:00:14;2.73;;;1.10;;
43146;SDS011;28752;48.266;7.402;2023-04-25T00:02:40;3.10;;;1.30;;
43146;SDS011;28752;48.266;7.402;2023-04-25T00:05:06;4.10;;;1.20;;
43146;SDS011;28752;48.266;7.402;2023-04-25T00:07:32;3.17;;;1.20;;
43146;SDS011;28752;48.266;7.402;2023-04-25T00:09:58;4.30;;;1.37;;
43146;SDS011;28752;48.266;7.402;2023-04-25T00:12:23;3.28;;;1.38;;
43146;SDS011;28752;48.266;7.402;2023-04-25T00:14:49;1.70;;;1.03;;
43146;SDS011;28752;48.266;7.402;2023-04-25T00:17:17;3.65;;;1.30;;
43146;SDS011;28752;48.266;7.402;2023-04-25T00:19:44;2.90;;;1.50;;
43146;SDS011;28752;48.266;7.402;2023-04-25T00:22:11;2.90;;;1.30;;
43146;SDS011;28752;48.266;7.402;2023-04-25T00:24:37;2.60;;;1.20;;
43146;SDS011;28752;48.266;7.402;2023-04-25T00:27:02;2.55;;;1.20;;
43146;SDS011;28752;48.266;7.402;2023-04-25T00:29:28;2.57;;;1.13;;
43146;SDS011;28752;48.266;7.402;2023-04-25T00:31:53;2.20;;;1.07;;
43146;SDS011;28752;48.266;7.402;2023-04-25T00:34:18;3.57;;;1.30;;
43146;SDS011;28752;48.266;7.402;2023-04-25T00:36:44;1.70;;;0.90;;
43146;SDS011;28752;48.266;7.402;2023-04-25T00:39:09;4.07;;;1.23;;
43146;SDS011;28752;48.266;7.402;2023-04-25T00:41:35;3.35;;;1.38;;
43146;SDS011;28752;48.266;7.402;2023-04-25T00:44:00;3.33;;;1.93;;
43146;SDS011;28752;48.266;7.402;2023-04-25T00:46:28;2.65;;;1.20;;
43146;SDS011;28752;48.266;7.402;2023-04-25T00:48:54;2.35;;;1.20;;
43146;SDS011;28752;48.266;7.402;2023-04-25T00:51:19;3.83;;;1.00;;
43146;SDS011;28752;48.266;7.402;2023-04-25T00:53:46;3.00;;;1.30;;
43146;SDS011;28752;48.266;7.402;2023-04-25T00:56:14;4.15;;;1.27;;
43146;SDS011;28752;48.266;7.402;2023-04-25T00:58:40;4.15;;;1.40;;
43146;SDS011;28752;48.266;7.402;2023-04-25T01:01:07;6.03;;;2.17;;
43146;SDS011;28752;48.266;7.402;2023-04-25T01:03:33;5.47;;;2.03;;
43146;SDS011;28752;48.266;7.402;2023-04-25T01:06:01;6.60;;;2.00;;
43146;SDS011;28752;48.266;7.402;2023-04-25T01:08:27;6.25;;;2.55;;
43146;SDS011;28752;48.266;7.402;2023-04-25T01:10:52;5.43;;;2.10;;
43146;SDS011;28752;48.266;7.402;2023-04-25T01:13:18;4.60;;;2.10;;
43146;SDS011;28752;48.266;7.402;2023-04-25T01:15:43;5.23;;;2.43;;
43146;SDS011;28752;48.266;7.402;2023-04-25T01:18:08;5.10;;;2.33;;
43146;SDS011;28752;48.266;7.402;2023-04-25T01:20:34;6.20;;;2.38;;
43146;SDS011;28752;48.266;7.402;2023-04-25T01:23:02;5.05;;;2.72;;
43146;SDS011;28752;48.266;7.402;2023-04-25T01:25:28;5.90;;;2.67;;
43146;SDS011;28752;48.266;7.402;2023-04-25T01:27:55;4.28;;;2.47;;
43146;SDS011;28752;48.266;7.402;2023-04-25T01:30:21;4.22;;;2.00;;
43146;SDS011;28752;48.266;7.402;2023-04-25T01:32:46;5.77;;;2.17;;
43146;SDS011;28752;48.266;7.402;2023-04-25T01:40:08;5.25;;;2.40;;
43146;SDS011;28752;48.266;7.402;2023-04-25T01:42:36;7.10;;;2.95;;
43146;SDS011;28752;48.266;7.402;2023-04-25T01:45:02;4.63;;;2.50;;
43146;SDS011;28752;48.266;7.402;2023-04-25T01:47:28;4.68;;;2.28;;
43146;SDS011;28752;48.266;7.402;2023-04-25T01:49:54;6.40;;;2.53;;
43146;SDS011;28752;48.266;7.402;2023-04-25T01:52:19;6.50;;;2.00;;
43146;SDS011;28752;48.266;7.402;2023-04-25T01:54:45;6.13;;;3.00;;
43146;SDS011;28752;48.266;7.402;2023-04-25T01:57:11;4.53;;;2.42;;
43146;SDS011;28752;48.266;7.402;2023-04-25T01:59:36;5.25;;;2.00;;
43146;SDS011;28752;48.266;7.402;2023-04-25T02:02:02;6.23;;;2.27;;
43146;SDS011;28752;48.266;7.402;2023-04-25T02:04:30;8.25;;;2.17;;
43146;SDS011;28752;48.266;7.402;2023-04-25T02:06:56;5.77;;;1.80;;
43146;SDS011;28752;48.266;7.402;2023-04-25T02:09:21;4.50;;;1.97;;
43146;SDS011;28752;48.266;7.402;2023-04-25T02:11:47;6.78;;;2.00;;
43146;SDS011;28752;48.266;7.402;2023-04-25T02:14:12;3.88;;;1.80;;
43146;SDS011;28752;48.266;7.402;2023-04-25T02:16:38;6.60;;;1.90;;
43146;SDS011;28752;48.266;7.402;2023-04-25T02:19:04;5.35;;;2.42;;
43146;SDS011;28752;48.266;7.402;2023-04-25T02:21:30;6.82;;;1.77;;
43146;SDS011;28752;48.266;7.402;2023-04-25T02:23:56;3.90;;;1.70;;
43146;SDS011;28752;48.266;7.402;2023-04-25T02:26:22;5.72;;;1.90;;
43146;SDS011;28752;48.266;7.402;2023-04-25T02:28:48;5.85;;;2.25;;
43146;SDS011;28752;48.266;7.402;2023-04-25T02:31:14;3.72;;;2.00;;
43146;SDS011;28752;48.266;7.402;2023-04-25T02:33:39;6.47;;;2.10;;
43146;SDS011;28752;48.266;7.402;2023-04-25T02:36:05;5.83;;;2.40;;
43146;SDS011;28752;48.266;7.402;2023-04-25T02:38:30;5.85;;;2.10;;
43146;SDS011;28752;48.266;7.402;2023-04-25T02:40:56;6.33;;;2.30;;
43146;SDS011;28752;48.266;7.402;2023-04-25T02:43:21;3.60;;;1.97;;
43146;SDS011;28752;48.266;7.402;2023-04-25T02:45:47;4.93;;;1.97;;
43146;SDS011;28752;48.266;7.402;2023-04-25T02:48:12;3.37;;;1.80;;
43146;SDS011;28752;48.266;7.402;2023-04-25T02:50:37;4.50;;;1.90;;
43146;SDS011;28752;48.266;7.402;2023-04-25T02:53:03;3.50;;;1.80;;
43146;SDS011;28752;48.266;7.402;2023-04-25T02:55:28;5.27;;;2.00;;
43146;SDS011;28752;48.266;7.402;2023-04-25T02:57:53;4.23;;;2.20;;
43146;SDS011;28752;48.266;7.402;2023-04-25T03:05:11;4.83;;;2.30;;
43146;SDS011;28752;48.266;7.402;2023-04-25T03:07:36;4.20;;;2.10;;
43146;SDS011;28752;48.266;7.402;2023-04-25T03:10:02;5.37;;;2.33;;
43146;SDS011;28752;48.266;7.402;2023-04-25T03:12:28;5.57;;;2.45;;
43146;SDS011;28752;48.266;7.402;2023-04-25T03:14:53;4.67;;;2.57;;
43146;SDS011;28752;48.266;7.402;2023-04-25T03:17:18;5.00;;;2.50;;
43146;SDS011;28752;48.266;7.402;2023-04-25T03:19:44;5.87;;;2.10;;
43146;SDS011;28752;48.266;7.402;2023-04-25T03:22:09;10.70;;;3.27;;
43146;SDS011;28752;48.266;7.402;2023-04-25T03:24:34;6.57;;;2.17;;
43146;SDS011;28752;48.266;7.402;2023-04-25T03:27:00;5.57;;;2.20;;
43146;SDS011;28752;48.266;7.402;2023-04-25T03:29:25;5.50;;;2.60;;
43146;SDS011;28752;48.266;7.402;2023-04-25T03:31:52;3.92;;;2.13;;
43146;SDS011;28752;48.266;7.402;2023-04-25T03:34:17;5.00;;;2.13;;
43146;SDS011;28752;48.266;7.402;2023-04-25T03:36:43;4.60;;;2.50;;
43146;SDS011;28752;48.266;7.402;2023-04-25T03:39:08;5.53;;;2.53;;
43146;SDS011;28752;48.266;7.402;2023-04-25T03:41:34;3.93;;;2.43;;
43146;SDS011;28752;48.266;7.402;2023-04-25T03:43:59;8.27;;;2.77;;
43146;SDS011;28752;48.266;7.402;2023-04-25T03:46:24;4.50;;;2.10;;
43146;SDS011;28752;48.266;7.402;2023-04-25T03:48:50;5.67;;;2.30;;
43146;SDS011;28752;48.266;7.402;2023-04-25T03:51:15;4.83;;;2.20;;
43146;SDS011;28752;48.266;7.402;2023-04-25T03:53:40;4.77;;;2.10;;
43146;SDS011;28752;48.266;7.402;2023-04-25T03:56:06;4.90;;;1.70;;
43146;SDS011;28752;48.266;7.402;2023-04-25T03:58:31;6.37;;;2.20;;
43146;SDS011;28752;48.266;7.402;2023-04-25T04:00:56;4.03;;;1.60;;
43146;SDS011;28752;48.266;7.402;2023-04-25T04:03:22;4.37;;;2.00;;
43146;SDS011;28752;48.266;7.402;2023-04-25T04:05:47;4.10;;;1.93;;
43146;SDS011;28752;48.266;7.402;2023-04-25T04:08:12;3.73;;;1.57;;
43146;SDS011;28752;48.266;7.402;2023-04-25T04:10:38;2.57;;;1.10;;
43146;SDS011;28752;48.266;7.402;2023-04-25T04:13:03;2.97;;;1.23;;
43146;SDS011;28752;48.266;7.402;2023-04-25T04:15:29;2.77;;;1.03;;
43146;SDS011;28752;48.266;7.402;2023-04-25T04:17:54;1.60;;;0.77;;
43146;SDS011;28752;48.266;7.402;2023-04-25T04:20:20;1.73;;;0.93;;
43146;SDS011;28752;48.266;7.402;2023-04-25T04:22:45;2.50;;;0.70;;
43146;SDS011;28752;48.266;7.402;2023-04-25T04:25:10;1.53;;;0.77;;
43146;SDS011;28752;48.266;7.402;2023-04-25T04:27:36;4.20;;;1.23;;
43146;SDS011;28752;48.266;7.402;2023-04-25T04:30:02;2.17;;;1.10;;
43146;SDS011;28752;48.266;7.402;2023-04-25T04:32:28;1.38;;;0.63;;
43146;SDS011;28752;48.266;7.402;2023-04-25T04:34:55;1.83;;;0.90;;
43146;SDS011;28752;48.266;7.402;2023-04-25T04:37:21;3.67;;;1.15;;
43146;SDS011;28752;48.266;7.402;2023-04-25T04:39:46;2.30;;;0.77;;
43146;SDS011;28752;48.266;7.402;2023-04-25T04:42:12;1.60;;;0.87;;
43146;SDS011;28752;48.266;7.402;2023-04-25T04:44:38;2.17;;;0.90;;
43146;SDS011;28752;48.266;7.402;2023-04-25T04:47:04;1.88;;;0.80;;
43146;SDS011;28752;48.266;7.402;2023-04-25T04:49:31;1.25;;;0.70;;
43146;SDS011;28752;48.266;7.402;2023-04-25T04:51:57;2.78;;;0.85;;
43146;SDS011;28752;48.266;7.402;2023-04-25T04:54:22;4.80;;;1.20;;
43146;SDS011;28752;48.266;7.402;2023-04-25T04:56:47;1.10;;;0.67;;
43146;SDS011;28752;48.266;7.402;2023-04-25T04:59:13;2.57;;;0.67;;
43146;SDS011;28752;48.266;7.402;2023-04-25T05:01:38;1.17;;;0.60;;
43146;SDS011;28752;48.266;7.402;2023-04-25T05:04:03;1.70;;;0.83;;
43146;SDS011;28752;48.266;7.402;2023-04-25T05:06:30;2.33;;;1.05;;
43146;SDS011;28752;48.266;7.402;2023-04-25T05:08:56;0.85;;;0.52;;
43146;SDS011;28752;48.266;7.402;2023-04-25T05:11:22;2.95;;;0.77;;
43146;SDS011;28752;48.266;7.402;2023-04-25T05:16:14;2.80;;;0.77;;
43146;SDS011;28752;48.266;7.402;2023-04-25T05:18:39;2.07;;;0.70;;
43146;SDS011;28752;48.266;7.402;2023-04-25T05:21:05;1.97;;;0.73;;
43146;SDS011;28752;48.266;7.402;2023-04-25T05:23:31;1.77;;;0.57;;
43146;SDS011;28752;48.266;7.402;2023-04-25T05:25:57;2.97;;;0.88;;
43146;SDS011;28752;48.266;7.402;2023-04-25T05:28:23;2.00;;;1.20;;
43146;SDS011;28752;48.266;7.402;2023-04-25T05:30:49;0.87;;;0.37;;
43146;SDS011;28752;48.266;7.402;2023-04-25T05:33:14;1.17;;;0.60;;
43146;SDS011;28752;48.266;7.402;2023-04-25T05:35:40;0.60;;;0.35;;
43146;SDS011;28752;48.266;7.402;2023-04-25T05:38:06;0.80;;;0.47;;
43146;SDS011;28752;48.266;7.402;2023-04-25T05:40:31;0.97;;;0.50;;
43146;SDS011;28752;48.266;7.402;2023-04-25T05:42:57;2.13;;;0.60;;
43146;SDS011;28752;48.266;7.402;2023-04-25T05:45:22;0.33;;;0.20;;
43146;SDS011;28752;48.266;7.402;2023-04-25T05:47:48;1.27;;;0.50;;
43146;SDS011;28752;48.266;7.402;2023-04-25T05:50:13;1.67;;;0.60;;
43146;SDS011;28752;48.266;7.402;2023-04-25T05:52:38;0.87;;;0.50;;
43146;SDS011;28752;48.266;7.402;2023-04-25T05:55:04;0.47;;;0.30;;
43146;SDS011;28752;48.266;7.402;2023-04-25T05:57:30;0.85;;;0.30;;
43146;SDS011;28752;48.266;7.402;2023-04-25T05:59:56;0.32;;;0.20;;
43146;SDS011;28752;48.266;7.402;2023-04-25T06:02:21;0.60;;;0.30;;
43146;SDS011;28752;48.266;7.402;2023-04-25T06:04:47;1.07;;;0.47;;
43146;SDS011;28752;48.266;7.402;2023-04-25T06:07:14;0.88;;;0.30;;
43146;SDS011;28752;48.266;7.402;2023-04-25T06:09:39;0.43;;;0.23;;
43146;SDS011;28752;48.266;7.402;2023-04-25T06:12:05;0.60;;;0.40;;
43146;SDS011;28752;48.266;7.402;2023-04-25T06:19:22;1.20;;;0.57;;
43146;SDS011;28752;48.266;7.402;2023-04-25T06:21:48;1.17;;;0.27;;
43146;SDS011;28752;48.266;7.402;2023-04-25T06:24:13;0.57;;;0.20;;
43146;SDS011;28752;48.266;7.402;2023-04-25T06:26:38;1.60;;;0.60;;
43146;SDS011;28752;48.266;7.402;2023-04-25T06:29:04;0.37;;;0.10;;
43146;SDS011;28752;48.266;7.402;2023-04-25T06:31:29;0.20;;;0.20;;
43146;SDS011;28752;48.266;7.402;2023-04-25T06:33:57;0.30;;;0.30;;
43146;SDS011;28752;48.266;7.402;2023-04-25T06:36:22;0.63;;;0.37;;
43146;SDS011;28752;48.266;7.402;2023-04-25T06:38:52;0.20;;;0.20;;
43146;SDS011;28752;48.266;7.402;2023-04-25T06:41:18;0.57;;;0.30;;
43146;SDS011;28752;48.266;7.402;2023-04-25T06:43:43;0.98;;;0.22;;
43146;SDS011;28752;48.266;7.402;2023-04-25T06:46:09;2.50;;;1.38;;
43146;SDS011;28752;48.266;7.402;2023-04-25T06:48:35;0.38;;;0.30;;
43146;SDS011;28752;48.266;7.402;2023-04-25T06:51:00;0.23;;;0.20;;
43146;SDS011;28752;48.266;7.402;2023-04-25T06:53:25;0.10;;;0.03;;
43146;SDS011;28752;48.266;7.402;2023-04-25T06:55:51;5.23;;;2.20;;
43146;SDS011;28752;48.266;7.402;2023-04-25T06:58:16;0.20;;;0.20;;
43146;SDS011;28752;48.266;7.402;2023-04-25T07:00:42;1.15;;;0.40;;
43146;SDS011;28752;48.266;7.402;2023-04-25T07:03:07;1.57;;;0.77;;
43146;SDS011;28752;48.266;7.402;2023-04-25T07:05:33;0.57;;;0.33;;
43146;SDS011;28752;48.266;7.402;2023-04-25T07:07:58;0.30;;;0.23;;
43146;SDS011;28752;48.266;7.402;2023-04-25T07:10:24;0.30;;;0.20;;
43146;SDS011;28752;48.266;7.402;2023-04-25T07:12:50;0.70;;;0.50;;
43146;SDS011;28752;48.266;7.402;2023-04-25T07:15:15;0.30;;;0.30;;
43146;SDS011;28752;48.266;7.402;2023-04-25T07:17:40;0.33;;;0.20;;
43146;SDS011;28752;48.266;7.402;2023-04-25T07:20:06;0.30;;;0.17;;
43146;SDS011;28752;48.266;7.402;2023-04-25T07:27:23;0.40;;;0.30;;
43146;SDS011;28752;48.266;7.402;2023-04-25T07:29:48;1.60;;;0.43;;
43146;SDS011;28752;48.266;7.402;2023-04-25T07:32:13;0.27;;;0.10;;
43146;SDS011;28752;48.266;7.402;2023-04-25T07:34:39;0.67;;;0.20;;
43146;SDS011;28752;48.266;7.402;2023-04-25T07:37:05;0.10;;;0.10;;
43146;SDS011;28752;48.266;7.402;2023-04-25T07:39:30;0.10;;;0.10;;
43146;SDS011;28752;48.266;7.402;2023-04-25T07:41:56;0.50;;;0.25;;
43146;SDS011;28752;48.266;7.402;2023-04-25T07:44:23;0.50;;;0.28;;
43146;SDS011;28752;48.266;7.402;2023-04-25T07:46:50;1.05;;;0.47;;
43146;SDS011;28752;48.266;7.402;2023-04-25T07:49:15;0.73;;;0.27;;
43146;SDS011;28752;48.266;7.402;2023-04-25T07:51:40;1.13;;;0.83;;
43146;SDS011;28752;48.266;7.402;2023-04-25T07:54:08;1.38;;;0.60;;
43146;SDS011;28752;48.266;7.402;2023-04-25T07:56:34;0.80;;;0.40;;
43146;SDS011;28752;48.266;7.402;2023-04-25T07:58:59;1.15;;;0.40;;
43146;SDS011;28752;48.266;7.402;2023-04-25T08:01:25;0.45;;;0.30;;
43146;SDS011;28752;48.266;7.402;2023-04-25T08:03:51;0.93;;;0.25;;
43146;SDS011;28752;48.266;7.402;2023-04-25T08:06:17;0.57;;;0.30;;
43146;SDS011;28752;48.266;7.402;2023-04-25T08:08:42;0.63;;;0.47;;
43146;SDS011;28752;48.266;7.402;2023-04-25T08:11:08;0.30;;;0.10;;
43146;SDS011;28752;48.266;7.402;2023-04-25T08:13:33;0.73;;;0.60;;
43146;SDS011;28752;48.266;7.402;2023-04-25T08:15:58;0.30;;;0.30;;
43146;SDS011;28752;48.266;7.402;2023-04-25T08:18:24;0.53;;;0.30;;
43146;SDS011;28752;48.266;7.402;2023-04-25T08:20:49;0.30;;;0.30;;
43146;SDS011;28752;48.266;7.402;2023-04-25T08:23:15;1.45;;;0.60;;
43146;SDS011;28752;48.266;7.402;2023-04-25T08:25:40;0.77;;;0.30;;
43146;SDS011;28752;48.266;7.402;2023-04-25T08:28:06;0.90;;;0.63;;
43146;SDS011;28752;48.266;7.402;2023-04-25T08:30:31;0.70;;;0.20;;
43146;SDS011;28752;48.266;7.402;2023-04-25T08:32:56;1.00;;;0.33;;
43146;SDS011;28752;48.266;7.402;2023-04-25T08:35:22;0.70;;;0.40;;
43146;SDS011;28752;48.266;7.402;2023-04-25T08:37:48;0.38;;;0.20;;
43146;SDS011;28752;48.266;7.402;2023-04-25T08:40:14;1.50;;;0.32;;
43146;SDS011;28752;48.266;7.402;2023-04-25T08:42:41;0.93;;;0.40;;
43146;SDS011;28752;48.266;7.402;2023-04-25T08:45:07;0.20;;;0.20;;
43146;SDS011;28752;48.266;7.402;2023-04-25T08:47:34;9.02;;;4.07;;
43146;SDS011;28752;48.266;7.402;2023-04-25T08:50:00;1.45;;;0.75;;
43146;SDS011;28752;48.266;7.402;2023-04-25T08:52:28;0.82;;;0.45;;
43146;SDS011;28752;48.266;7.402;2023-04-25T08:55:00;1.27;;;0.50;;
43146;SDS011;28752;48.266;7.402;2023-04-25T08:57:26;1.23;;;0.65;;
43146;SDS011;28752;48.266;7.402;2023-04-25T08:59:52;1.50;;;0.70;;
43146;SDS011;28752;48.266;7.402;2023-04-25T09:02:18;2.30;;;0.80;;
43146;SDS011;28752;48.266;7.402;2023-04-25T09:04:45;1.75;;;0.50;;
43146;SDS011;28752;48.266;7.402;2023-04-25T09:07:11;0.88;;;0.50;;
43146;SDS011;28752;48.266;7.402;2023-04-25T09:09:37;1.33;;;0.60;;
43146;SDS011;28752;48.266;7.402;2023-04-25T09:12:02;1.47;;;0.57;;
43146;SDS011;28752;48.266;7.402;2023-04-25T09:14:28;1.08;;;0.52;;
43146;SDS011;28752;48.266;7.402;2023-04-25T09:19:25;1.55;;;0.47;;
43146;SDS011;28752;48.266;7.402;2023-04-25T09:21:58;1.63;;;0.77;;
43146;SDS011;28752;48.266;7.402;2023-04-25T09:27:09;1.20;;;0.70;;
43146;SDS011;28752;48.266;7.402;2023-04-25T09:36:18;1.67;;;0.70;;
43146;SDS011;28752;48.266;7.402;2023-04-25T09:38:51;2.10;;;0.90;;
43146;SDS011;28752;48.266;7.402;2023-04-25T09:41:22;2.47;;;0.83;;
43146;SDS011;28752;48.266;7.402;2023-04-25T09:43:48;2.05;;;0.88;;
43146;SDS011;28752;48.266;7.402;2023-04-25T09:46:14;1.00;;;0.60;;
43146;SDS011;28752;48.266;7.402;2023-04-25T09:48:40;1.58;;;0.82;;
43146;SDS011;28752;48.266;7.402;2023-04-25T09:51:14;1.23;;;0.70;;
43146;SDS011;28752;48.266;7.402;2023-04-25T09:53:40;1.17;;;0.73;;
43146;SDS011;28752;48.266;7.402;2023-04-25T09:56:11;0.95;;;0.47;;
43146;SDS011;28752;48.266;7.402;2023-04-25T10:01:04;0.93;;;0.60;;
43146;SDS011;28752;48.266;7.402;2023-04-25T10:03:33;1.42;;;0.75;;
43146;SDS011;28752;48.266;7.402;2023-04-25T10:06:00;0.63;;;0.50;;
43146;SDS011;28752;48.266;7.402;2023-04-25T10:08:31;1.20;;;0.60;;
43146;SDS011;28752;48.266;7.402;2023-04-25T10:11:02;1.25;;;0.70;;
43146;SDS011;28752;48.266;7.402;2023-04-25T10:13:30;1.00;;;0.40;;
43146;SDS011;28752;48.266;7.402;2023-04-25T10:16:00;1.02;;;0.60;;
43146;SDS011;28752;48.266;7.402;2023-04-25T10:18:30;2.15;;;0.98;;
43146;SDS011;28752;48.266;7.402;2023-04-25T10:21:00;1.88;;;0.80;;
43146;SDS011;28752;48.266;7.402;2023-04-25T10:23:28;0.50;;;0.40;;
43146;SDS011;28752;48.266;7.402;2023-04-25T10:25:54;1.27;;;0.50;;
43146;SDS011;28752;48.266;7.402;2023-04-25T10:28:20;1.08;;;0.73;;
43146;SDS011;28752;48.266;7.402;2023-04-25T10:30:59;0.80;;;0.37;;
43146;SDS011;28752;48.266;7.402;2023-04-25T10:33:37;0.47;;;0.35;;
43146;SDS011;28752;48.266;7.402;2023-04-25T10:36:17;1.38;;;0.50;;
43146;SDS011;28752;48.266;7.402;2023-04-25T10:38:45;0.47;;;0.35;;
43146;SDS011;28752;48.266;7.402;2023-04-25T10:41:13;1.05;;;0.40;;
43146;SDS011;28752;48.266;7.402;2023-04-25T10:46:12;0.57;;;0.30;;
43146;SDS011;28752;48.266;7.402;2023-04-25T10:48:51;1.52;;;0.38;;
43146;SDS011;28752;48.266;7.402;2023-04-25T10:51:22;1.15;;;0.40;;
43146;SDS011;28752;48.266;7.402;2023-04-25T10:56:20;1.38;;;0.50;;
43146;SDS011;28752;48.266;7.402;2023-04-25T10:58:47;1.40;;;0.45;;
43146;SDS011;28752;48.266;7.402;2023-04-25T11:03:42;0.85;;;0.40;;
43146;SDS011;28752;48.266;7.402;2023-04-25T11:06:15;2.05;;;1.10;;
43146;SDS011;28752;48.266;7.402;2023-04-25T11:09:02;0.95;;;0.63;;
43146;SDS011;28752;48.266;7.402;2023-04-25T11:11:36;1.45;;;0.85;;
43146;SDS011;28752;48.266;7.402;2023-04-25T11:14:01;1.27;;;0.63;;
43146;SDS011;28752;48.266;7.402;2023-04-25T11:16:27;1.80;;;0.63;;
43146;SDS011;28752;48.266;7.402;2023-04-25T11:18:52;1.30;;;0.70;;
43146;SDS011;28752;48.266;7.402;2023-04-25T11:21:17;1.17;;;0.60;;
43146;SDS011;28752;48.266;7.402;2023-04-25T11:23:46;2.17;;;0.90;;
43146;SDS011;28752;48.266;7.402;2023-04-25T11:26:12;1.38;;;0.70;;
43146;SDS011;28752;48.266;7.402;2023-04-25T11:28:38;1.20;;;0.68;;
43146;SDS011;28752;48.266;7.402;2023-04-25T11:31:04;2.10;;;0.93;;
43146;SDS011;28752;48.266;7.402;2023-04-25T11:33:29;1.45;;;0.63;;
43146;SDS011;28752;48.266;7.402;2023-04-25T11:35:54;2.70;;;1.30;;
43146;SDS011;28752;48.266;7.402;2023-04-25T11:38:21;1.80;;;0.85;;
43146;SDS011;28752;48.266;7.402;2023-04-25T11:40:53;2.38;;;0.80;;
43146;SDS011;28752;48.266;7.402;2023-04-25T11:43:20;0.93;;;0.50;;
43146;SDS011;28752;48.266;7.402;2023-04-25T11:45:47;1.75;;;0.52;;
43146;SDS011;28752;48.266;7.402;2023-04-25T11:48:14;2.22;;;0.70;;
43146;SDS011;28752;48.266;7.402;2023-04-25T11:50:39;2.73;;;0.80;;
43146;SDS011;28752;48.266;7.402;2023-04-25T11:53:05;0.90;;;0.60;;
43146;SDS011;28752;48.266;7.402;2023-04-25T11:55:31;0.82;;;0.40;;
43146;SDS011;28752;48.266;7.402;2023-04-25T11:57:56;1.03;;;0.40;;
43146;SDS011;28752;48.266;7.402;2023-04-25T12:00:25;1.35;;;0.55;;
43146;SDS011;28752;48.266;7.402;2023-04-25T12:02:55;1.42;;;0.63;;
43146;SDS011;28752;48.266;7.402;2023-04-25T12:05:26;1.13;;;0.55;;
43146;SDS011;28752;48.266;7.402;2023-04-25T12:07:53;1.55;;;0.65;;
43146;SDS011;28752;48.266;7.402;2023-04-25T12:10:19;1.30;;;0.65;;
43146;SDS011;28752;48.266;7.402;2023-04-25T12:12:46;0.93;;;0.30;;
43146;SDS011;28752;48.266;7.402;2023-04-25T12:15:14;2.15;;;0.70;;
43146;SDS011;28752;48.266;7.402;2023-04-25T12:17:47;1.77;;;0.85;;
43146;SDS011;28752;48.266;7.402;2023-04-25T12:20:16;0.70;;;0.50;;
43146;SDS011;28752;48.266;7.402;2023-04-25T12:22:46;2.97;;;0.95;;
43146;SDS011;28752;48.266;7.402;2023-04-25T12:25:13;1.15;;;0.55;;
43146;SDS011;28752;48.266;7.402;2023-04-25T12:28:16;1.75;;;0.70;;
43146;SDS011;28752;48.266;7.402;2023-04-25T12:33:33;3.65;;;0.82;;
43146;SDS011;28752;48.266;7.402;2023-04-25T12:36:00;1.17;;;0.80;;
43146;SDS011;28752;48.266;7.402;2023-04-25T12:38:29;0.63;;;0.40;;
43146;SDS011;28752;48.266;7.402;2023-04-25T12:40:55;1.30;;;0.60;;
43146;SDS011;28752;48.266;7.402;2023-04-25T12:43:24;1.88;;;0.68;;
43146;SDS011;28752;48.266;7.402;2023-04-25T12:45:50;1.27;;;0.45;;
43146;SDS011;28752;48.266;7.402;2023-04-25T12:48:17;1.55;;;0.75;;
43146;SDS011;28752;48.266;7.402;2023-04-25T12:50:43;1.42;;;0.57;;
43146;SDS011;28752;48.266;7.402;2023-04-25T12:53:09;1.40;;;0.40;;
43146;SDS011;28752;48.266;7.402;2023-04-25T12:55:35;0.63;;;0.50;;
43146;SDS011;28752;48.266;7.402;2023-04-25T12:58:00;1.30;;;0.70;;
43146;SDS011;28752;48.266;7.402;2023-04-25T13:00:25;1.17;;;0.50;;
43146;SDS011;28752;48.266;7.402;2023-04-25T13:02:51;1.30;;;0.40;;
43146;SDS011;28752;48.266;7.402;2023-04-25T13:05:16;2.30;;;0.45;;
43146;SDS011;28752;48.266;7.402;2023-04-25T13:07:42;0.87;;;0.40;;
43146;SDS011;28752;48.266;7.402;2023-04-25T13:10:07;0.30;;;0.30;;
43146;SDS011;28752;48.266;7.402;2023-04-25T13:12:33;0.85;;;0.60;;
43146;SDS011;28752;48.266;7.402;2023-04-25T13:14:58;0.70;;;0.30;;
43146;SDS011;28752;48.266;7.402;2023-04-25T13:17:23;2.73;;;0.80;;
43146;SDS011;28752;48.266;7.402;2023-04-25T13:19:49;0.70;;;0.40;;
43146;SDS011;28752;48.266;7.402;2023-04-25T13:22:14;0.53;;;0.40;;
43146;SDS011;28752;48.266;7.402;2023-04-25T13:24:41;2.92;;;1.00;;
43146;SDS011;28752;48.266;7.402;2023-04-25T13:27:07;0.75;;;0.30;;
43146;SDS011;28752;48.266;7.402;2023-04-25T13:29:32;0.47;;;0.47;;
43146;SDS011;28752;48.266;7.402;2023-04-25T13:32:00;4.38;;;1.20;;
43146;SDS011;28752;48.266;7.402;2023-04-25T13:39:17;2.30;;;0.80;;
43146;SDS011;28752;48.266;7.402;2023-04-25T13:41:42;1.50;;;0.60;;
43146;SDS011;28752;48.266;7.402;2023-04-25T13:44:07;5.43;;;1.30;;
43146;SDS011;28752;48.266;7.402;2023-04-25T13:46:33;3.73;;;1.37;;
43146;SDS011;28752;48.266;7.402;2023-04-25T13:48:59;1.50;;;0.73;;
43146;SDS011;28752;48.266;7.402;2023-04-25T13:51:24;1.23;;;0.43;;
43146;SDS011;28752;48.266;7.402;2023-04-25T13:53:51;3.90;;;0.95;;
43146;SDS011;28752;48.266;7.402;2023-04-25T13:56:17;1.07;;;0.60;;
43146;SDS011;28752;48.266;7.402;2023-04-25T13:58:44;1.92;;;0.75;;
43146;SDS011;28752;48.266;7.402;2023-04-25T14:01:10;1.20;;;0.60;;
43146;SDS011;28752;48.266;7.402;2023-04-25T14:03:35;3.30;;;0.93;;
43146;SDS011;28752;48.266;7.402;2023-04-25T14:06:01;1.57;;;0.60;;
43146;SDS011;28752;48.266;7.402;2023-04-25T14:08:26;1.13;;;0.63;;
43146;SDS011;28752;48.266;7.402;2023-04-25T14:10:52;1.52;;;0.85;;
43146;SDS011;28752;48.266;7.402;2023-04-25T14:13:17;0.47;;;0.40;;
43146;SDS011;28752;48.266;7.402;2023-04-25T14:15:43;2.38;;;0.98;;
43146;SDS011;28752;48.266;7.402;2023-04-25T14:18:08;0.93;;;0.50;;
43146;SDS011;28752;48.266;7.402;2023-04-25T14:20:34;3.07;;;1.00;;
43146;SDS011;28752;48.266;7.402;2023-04-25T14:22:59;0.47;;;0.40;;
43146;SDS011;28752;48.266;7.402;2023-04-25T14:25:25;1.83;;;0.80;;
43146;SDS011;28752;48.266;7.402;2023-04-25T14:27:50;1.02;;;0.50;;
43146;SDS011;28752;48.266;7.402;2023-04-25T14:30:17;0.80;;;0.40;;
43146;SDS011;28752;48.266;7.402;2023-04-25T14:32:44;1.05;;;0.57;;
43146;SDS011;28752;48.266;7.402;2023-04-25T14:35:10;0.70;;;0.40;;
43146;SDS011;28752;48.266;7.402;2023-04-25T14:37:35;1.15;;;0.47;;
43146;SDS011;28752;48.266;7.402;2023-04-25T14:40:01;1.23;;;0.57;;
43146;SDS011;28752;48.266;7.402;2023-04-25T14:42:26;1.13;;;0.50;;
43146;SDS011;28752;48.266;7.402;2023-04-25T14:44:52;1.03;;;0.50;;
43146;SDS011;28752;48.266;7.402;2023-04-25T14:47:17;2.33;;;0.57;;
43146;SDS011;28752;48.266;7.402;2023-04-25T14:49:43;1.80;;;0.77;;
43146;SDS011;28752;48.266;7.402;2023-04-25T14:52:08;2.42;;;1.20;;
43146;SDS011;28752;48.266;7.402;2023-04-25T14:54:34;2.80;;;1.33;;
43146;SDS011;28752;48.266;7.402;2023-04-25T14:56:59;1.53;;;0.80;;
43146;SDS011;28752;48.266;7.402;2023-04-25T14:59:25;2.65;;;0.90;;
43146;SDS011;28752;48.266;7.402;2023-04-25T15:01:52;2.60;;;1.23;;
43146;SDS011;28752;48.266;7.402;2023-04-25T15:04:18;2.67;;;1.30;;
43146;SDS011;28752;48.266;7.402;2023-04-25T15:06:43;1.98;;;0.70;;
43146;SDS011;28752;48.266;7.402;2023-04-25T15:09:09;2.10;;;0.80;;
43146;SDS011;28752;48.266;7.402;2023-04-25T15:11:35;3.53;;;0.75;;
43146;SDS011;28752;48.266;7.402;2023-04-25T15:14:01;1.77;;;0.90;;
43146;SDS011;28752;48.266;7.402;2023-04-25T15:16:27;1.27;;;0.80;;
43146;SDS011;28752;48.266;7.402;2023-04-25T15:18:52;2.13;;;0.87;;
43146;SDS011;28752;48.266;7.402;2023-04-25T15:21:17;2.87;;;0.97;;
43146;SDS011;28752;48.266;7.402;2023-04-25T15:23:43;1.10;;;0.57;;
43146;SDS011;28752;48.266;7.402;2023-04-25T15:26:08;1.60;;;0.70;;
43146;SDS011;28752;48.266;7.402;2023-04-25T15:28:33;4.60;;;1.40;;
43146;SDS011;28752;48.266;7.402;2023-04-25T15:30:59;6.37;;;2.53;;
43146;SDS011;28752;48.266;7.402;2023-04-25T15:33:24;3.63;;;1.05;;